createdAt,value
2018-07-17T00:00:34.232Z,99.90
2018-07-17T00:03:01.740Z,99.90
2018-07-17T00:05:29.807Z,99.90
2018-07-17T00:07:57.847Z,99.90
2018-07-17T00:10:25.401Z,99.90
2018-07-17T00:12:53.526Z,99.90
2018-07-17T00:15:20.912Z,99.90
2018-07-17T00:17:49.196Z,99.90
2018-07-17T00:20:17.100Z,99.60
2018-07-17T00:22:45.359Z,99.70
2018-07-17T00:25:12.871Z,99.40
2018-07-17T00:27:40.916Z,99.50
2018-07-17T00:30:09.016Z,99.60
2018-07-17T00:32:36.552Z,99.20
2018-07-17T00:35:04.836Z,99.20
2018-07-17T00:37:32.385Z,98.50
2018-07-17T00:39:59.899Z,98.30
2018-07-17T00:42:28.260Z,98.20
2018-07-17T00:44:56.116Z,98.60
2018-07-17T00:47:23.980Z,98.30
2018-07-17T00:49:51.583Z,99.30
2018-07-17T00:52:19.108Z,99.30
2018-07-17T00:54:46.652Z,99.00
2018-07-17T00:57:14.779Z,98.20
2018-07-17T00:59:42.815Z,97.90
2018-07-17T01:02:15.969Z,97.70
2018-07-17T01:04:49.295Z,97.70
2018-07-17T01:07:23.516Z,97.80
2018-07-17T01:14:59.688Z,98.50
2018-07-17T01:17:28.198Z,99.40
2018-07-17T01:19:56.112Z,98.60
2018-07-17T01:22:23.693Z,98.70
2018-07-17T01:24:51.828Z,98.10
2018-07-17T01:27:19.638Z,97.80
2018-07-17T01:29:47.136Z,98.40
2018-07-17T01:32:15.464Z,98.80
2018-07-17T01:34:43.013Z,98.70
2018-07-17T01:37:10.933Z,98.80
2018-07-17T01:39:38.431Z,98.60
2018-07-17T01:42:06.668Z,99.10
2018-07-17T01:44:34.884Z,98.40
2018-07-17T01:47:02.748Z,98.40
2018-07-17T01:49:30.236Z,98.20
2018-07-17T01:51:57.739Z,98.20
2018-07-17T01:54:25.852Z,98.10
2018-07-17T01:56:53.755Z,98.20
2018-07-17T01:59:21.767Z,98.70
2018-07-17T02:01:49.559Z,97.40
2018-07-17T02:04:17.087Z,97.60
2018-07-17T02:06:45.120Z,97.50
2018-07-17T02:09:12.999Z,97.50
2018-07-17T02:11:41.273Z,97.30
2018-07-17T02:14:09.268Z,97.70
2018-07-17T02:16:37.425Z,97.80
2018-07-17T02:19:05.812Z,97.50
2018-07-17T02:21:33.319Z,97.80
2018-07-17T02:24:00.837Z,98.70
2018-07-17T02:26:28.767Z,97.50
2018-07-17T02:28:56.293Z,97.30
2018-07-17T02:31:24.454Z,97.60
2018-07-17T02:36:19.527Z,97.50
2018-07-17T02:38:47.596Z,96.70
2018-07-17T02:41:15.119Z,96.60
2018-07-17T02:43:42.995Z,96.70
2018-07-17T02:46:10.577Z,96.60
2018-07-17T02:48:38.084Z,97.00
2018-07-17T02:51:05.671Z,96.70
2018-07-17T02:53:33.607Z,96.80
2018-07-17T02:56:01.127Z,96.90
2018-07-17T02:58:28.628Z,97.00
2018-07-17T03:00:56.862Z,96.90
2018-07-17T03:03:24.356Z,97.20
2018-07-17T03:05:52.218Z,96.40
2018-07-17T03:08:20.095Z,96.10
2018-07-17T03:10:47.916Z,95.90
2018-07-17T03:13:16.459Z,95.80
2018-07-17T03:15:44.595Z,95.80
2018-07-17T03:18:12.120Z,95.80
2018-07-17T03:20:40.310Z,95.90
2018-07-17T03:23:07.883Z,96.60
2018-07-17T03:25:35.396Z,97.90
2018-07-17T03:28:02.972Z,96.90
2018-07-17T03:30:31.207Z,97.20
2018-07-17T03:32:58.705Z,97.20
2018-07-17T03:35:26.223Z,97.00
2018-07-17T03:37:54.036Z,97.50
2018-07-17T03:40:21.892Z,97.80
2018-07-17T03:42:50.108Z,97.00
2018-07-17T03:45:18.156Z,96.90
2018-07-17T03:47:45.667Z,96.90
2018-07-17T03:50:13.580Z,96.40
2018-07-17T03:55:09.528Z,96.40
2018-07-17T03:57:37.053Z,97.40
2018-07-17T04:00:05.268Z,98.40
2018-07-17T04:05:00.217Z,98.10
2018-07-17T04:07:28.260Z,98.90
2018-07-17T04:09:56.471Z,98.10
2018-07-17T04:12:24.425Z,98.20
2018-07-17T04:14:51.932Z,97.90
2018-07-17T04:17:19.448Z,97.20
2018-07-17T04:22:14.808Z,97.40
2018-07-17T04:24:42.676Z,97.20
2018-07-17T04:27:10.212Z,96.70
2018-07-17T04:29:37.748Z,96.90
2018-07-17T04:32:05.732Z,97.40
2018-07-17T04:34:33.269Z,97.50
2018-07-17T04:37:00.775Z,96.70
2018-07-17T04:39:28.894Z,96.70
2018-07-17T04:41:56.766Z,97.40
2018-07-17T04:44:24.799Z,97.40
2018-07-17T04:46:52.792Z,96.80
2018-07-17T04:49:21.517Z,96.60
2018-07-17T04:51:50.463Z,97.20
2018-07-17T04:54:18.431Z,97.20
2018-07-17T04:56:46.509Z,96.40
2018-07-17T04:59:14.796Z,96.70
2018-07-17T05:01:42.864Z,96.20
2018-07-17T05:04:10.840Z,96.70
2018-07-17T05:06:39.014Z,97.20
2018-07-17T05:09:07.913Z,97.00
2018-07-17T05:11:36.398Z,96.40
2018-07-17T05:16:32.097Z,95.60
2018-07-17T05:19:00.009Z,95.50
2018-07-17T05:21:27.539Z,95.40
2018-07-17T05:23:55.400Z,95.50
2018-07-17T05:26:22.940Z,95.20
2018-07-17T05:28:50.477Z,96.00
2018-07-17T05:31:18.454Z,94.70
2018-07-17T05:36:13.772Z,94.60
2018-07-17T05:38:41.376Z,94.60
2018-07-17T05:41:09.195Z,94.10
2018-07-17T05:43:37.122Z,94.20
2018-07-17T05:46:05.025Z,94.40
2018-07-17T05:48:32.607Z,94.50
2018-07-17T05:51:00.175Z,93.70
2018-07-17T05:53:28.247Z,93.60
2018-07-17T05:55:55.856Z,93.80
2018-07-17T05:58:23.388Z,93.40
2018-07-17T06:00:51.807Z,93.10
2018-07-17T06:03:19.684Z,93.00
2018-07-17T06:05:47.623Z,92.50
2018-07-17T06:08:16.275Z,92.20
2018-07-17T06:10:43.759Z,92.20
2018-07-17T06:13:11.660Z,93.40
2018-07-17T06:18:06.627Z,91.60
2018-07-17T06:20:34.677Z,91.40
2018-07-17T06:23:02.193Z,91.20
2018-07-17T06:25:29.702Z,90.90
2018-07-17T06:27:57.270Z,89.70
2018-07-17T06:30:25.286Z,89.30
2018-07-17T06:32:53.337Z,89.10
2018-07-17T06:35:21.601Z,88.00
2018-07-17T06:37:49.564Z,88.50
2018-07-17T06:40:17.451Z,88.80
2018-07-17T06:42:45.395Z,88.60
2018-07-17T06:45:14.084Z,89.20
2018-07-17T06:47:41.699Z,88.80
2018-07-17T06:50:09.386Z,88.20
2018-07-17T06:52:36.855Z,88.20
2018-07-17T06:55:04.828Z,88.90
2018-07-17T06:57:32.689Z,88.90
2018-07-17T07:00:00.801Z,88.90
2018-07-17T07:02:28.372Z,88.30
2018-07-17T07:04:56.255Z,88.30
2018-07-17T07:07:24.418Z,87.70
2018-07-17T07:09:51.915Z,87.10
2018-07-17T07:12:19.795Z,87.40
2018-07-17T07:14:47.331Z,86.90
2018-07-17T07:17:14.883Z,86.20
2018-07-17T07:19:42.955Z,84.60
2018-07-17T07:22:10.845Z,85.20
2018-07-17T07:24:38.708Z,84.20
2018-07-17T07:27:06.240Z,85.40
2018-07-17T07:29:33.754Z,84.00
2018-07-17T07:32:01.636Z,84.20
2018-07-17T07:34:29.148Z,83.30
2018-07-17T07:39:24.777Z,83.50
2018-07-17T07:41:52.596Z,83.50
2018-07-17T07:44:21.045Z,83.30
2018-07-17T07:46:48.935Z,82.90
2018-07-17T07:49:16.662Z,83.50
2018-07-17T07:51:44.195Z,81.90
2018-07-17T07:54:11.739Z,82.50
2018-07-17T07:56:39.636Z,81.80
2018-07-17T07:59:07.547Z,81.50
2018-07-17T08:04:03.029Z,82.60
2018-07-17T08:06:32.125Z,81.20
2018-07-17T08:09:00.293Z,81.40
2018-07-17T08:11:28.365Z,81.80
2018-07-17T08:13:56.417Z,82.10
2018-07-17T08:18:52.084Z,80.70
2018-07-17T08:26:14.696Z,80.50
2018-07-17T08:28:42.591Z,81.10
2018-07-17T08:31:10.524Z,82.30
2018-07-17T08:33:38.596Z,81.40
2018-07-17T08:36:06.543Z,81.50
2018-07-17T08:38:34.438Z,80.30
2018-07-17T08:41:01.940Z,79.80
2018-07-17T08:43:29.936Z,80.80
2018-07-17T08:45:58.052Z,80.50
2018-07-17T08:48:25.967Z,80.80
2018-07-17T08:50:54.088Z,80.30
2018-07-17T08:53:21.897Z,79.50
2018-07-17T08:55:49.756Z,79.20
2018-07-17T08:58:17.628Z,78.10
2018-07-17T09:00:45.499Z,78.60
2018-07-17T09:03:13.479Z,78.10
2018-07-17T09:05:41.004Z,77.30
2018-07-17T09:10:37.072Z,77.00
2018-07-17T09:13:05.399Z,76.80
2018-07-17T09:15:33.340Z,75.40
2018-07-17T09:18:00.900Z,76.40
2018-07-17T09:20:29.468Z,77.00
2018-07-17T09:22:56.952Z,76.60
2018-07-17T09:25:24.548Z,76.90
2018-07-17T09:27:52.526Z,75.20
2018-07-17T09:30:20.573Z,75.60
2018-07-17T09:32:48.060Z,74.80
2018-07-17T09:35:15.964Z,74.10
2018-07-17T09:37:43.487Z,75.40
2018-07-17T09:40:12.172Z,75.70
2018-07-17T09:42:39.760Z,75.20
2018-07-17T09:45:07.991Z,75.60
2018-07-17T09:47:35.520Z,75.20
2018-07-17T09:50:03.119Z,75.40
2018-07-17T09:52:31.599Z,72.20
2018-07-17T09:54:59.332Z,73.80
2018-07-17T09:57:28.188Z,74.30
2018-07-17T09:59:56.635Z,73.10
2018-07-17T10:02:27.738Z,73.30
2018-07-17T10:04:56.222Z,73.90
2018-07-17T10:07:24.488Z,73.30
2018-07-17T10:09:52.642Z,71.80
2018-07-17T10:12:20.800Z,69.40
2018-07-17T10:14:48.318Z,69.60
2018-07-17T10:17:15.849Z,69.70
2018-07-17T10:19:43.695Z,65.20
2018-07-17T10:22:11.220Z,67.50
2018-07-17T10:24:39.070Z,66.50
2018-07-17T10:27:06.593Z,65.80
2018-07-17T10:29:34.492Z,64.50
2018-07-17T10:32:02.451Z,65.50
2018-07-17T10:36:57.959Z,64.50
2018-07-17T10:39:26.079Z,64.00
2018-07-17T10:41:53.583Z,63.50
2018-07-17T10:44:21.642Z,63.30
2018-07-17T10:46:49.215Z,62.70
2018-07-17T10:49:18.367Z,62.90
2018-07-17T10:51:46.437Z,61.30
2018-07-17T10:54:14.424Z,61.60
2018-07-17T10:59:10.367Z,61.30
2018-07-17T11:01:37.903Z,59.80
2018-07-17T11:04:05.690Z,65.30
2018-07-17T11:06:33.282Z,70.70
2018-07-17T11:09:01.094Z,74.80
2018-07-17T11:11:29.020Z,78.50
2018-07-17T11:13:56.980Z,81.30
2018-07-17T11:16:25.271Z,83.20
2018-07-17T11:18:53.233Z,82.30
2018-07-17T11:21:21.383Z,83.50
2018-07-17T11:23:48.885Z,85.70
2018-07-17T11:26:16.383Z,84.40
2018-07-17T11:28:44.612Z,85.00
2018-07-17T11:31:12.628Z,84.80
2018-07-17T11:33:40.400Z,87.80
2018-07-17T11:36:08.000Z,87.80
2018-07-17T11:38:36.029Z,87.20
2018-07-17T11:41:03.514Z,87.30
2018-07-17T11:43:31.450Z,85.80
2018-07-17T11:45:59.523Z,87.40
2018-07-17T11:48:27.420Z,87.00
2018-07-17T11:50:55.681Z,86.40
2018-07-17T11:53:23.702Z,88.20
2018-07-17T11:55:51.681Z,90.10
2018-07-17T11:58:19.707Z,92.60
2018-07-17T12:00:47.603Z,91.60
2018-07-17T12:03:15.724Z,91.30
2018-07-17T12:05:43.662Z,91.00
2018-07-17T12:08:11.621Z,90.60
2018-07-17T12:10:39.555Z,92.70
2018-07-17T12:13:07.531Z,90.20
2018-07-17T12:15:35.487Z,89.50
2018-07-17T12:18:03.476Z,91.00
2018-07-17T12:20:31.540Z,89.80
2018-07-17T12:22:58.933Z,87.90
2018-07-17T12:25:26.478Z,89.80
2018-07-17T12:27:54.108Z,90.90
2018-07-17T12:30:22.325Z,90.50
2018-07-17T12:32:49.835Z,91.30
2018-07-17T12:35:17.399Z,89.30
2018-07-17T12:37:44.949Z,90.80
2018-07-17T12:40:12.460Z,87.10
2018-07-17T12:42:40.052Z,87.50
2018-07-17T12:45:08.011Z,88.80
2018-07-17T12:47:35.507Z,89.70
2018-07-17T12:50:04.060Z,85.30
2018-07-17T12:52:31.588Z,83.80
2018-07-17T12:54:59.139Z,88.00
2018-07-17T12:57:27.254Z,85.00
2018-07-17T12:59:54.797Z,86.60
2018-07-17T13:02:22.451Z,88.40
2018-07-17T13:04:49.999Z,86.90
2018-07-17T13:07:17.828Z,87.00
2018-07-17T13:09:45.989Z,85.90
2018-07-17T13:12:14.186Z,87.40
2018-07-17T13:14:42.235Z,85.40
2018-07-17T13:17:10.392Z,78.80
2018-07-17T13:19:38.347Z,84.60
2018-07-17T13:22:05.960Z,84.50
2018-07-17T13:24:33.886Z,83.30
2018-07-17T13:27:01.831Z,79.60
2018-07-17T13:34:25.506Z,77.40
2018-07-17T13:36:53.089Z,73.80
2018-07-17T13:39:21.525Z,73.30
2018-07-17T13:41:49.711Z,72.50
2018-07-17T13:44:18.230Z,71.50
2018-07-17T13:46:46.230Z,68.60
2018-07-17T13:49:14.211Z,67.20
2018-07-17T13:51:41.759Z,68.80
2018-07-17T13:54:09.244Z,68.10
2018-07-17T13:56:36.887Z,63.00
2018-07-17T13:59:04.871Z,63.90
2018-07-17T14:01:32.398Z,65.70
2018-07-17T14:04:00.283Z,66.20
2018-07-17T14:06:27.964Z,64.50
2018-07-17T14:08:55.881Z,61.80
2018-07-17T14:11:23.463Z,61.20
2018-07-17T14:13:51.412Z,59.50
2018-07-17T14:16:18.995Z,58.60
2018-07-17T14:18:47.077Z,56.40
2018-07-17T14:21:15.762Z,54.30
2018-07-17T14:23:44.023Z,56.40
2018-07-17T14:26:11.573Z,52.10
2018-07-17T14:28:39.077Z,49.90
2018-07-17T14:31:07.164Z,49.10
2018-07-17T14:33:35.516Z,51.60
2018-07-17T14:36:03.080Z,51.50
2018-07-17T14:38:30.631Z,48.00
2018-07-17T14:40:59.856Z,48.10
2018-07-17T14:43:27.730Z,51.00
2018-07-17T14:45:55.660Z,52.10
2018-07-17T14:50:51.184Z,56.70
2018-07-17T14:53:19.416Z,57.90
2018-07-17T14:55:47.284Z,58.60
2018-07-17T14:58:15.164Z,59.30
2018-07-17T15:00:43.910Z,58.50
2018-07-17T15:05:39.232Z,51.80
2018-07-17T15:08:07.047Z,54.80
2018-07-17T15:10:34.560Z,51.30
2018-07-17T15:13:02.405Z,53.20
2018-07-17T15:15:29.961Z,53.00
2018-07-17T15:17:58.412Z,53.40
2018-07-17T15:20:26.370Z,55.70
2018-07-17T15:25:21.788Z,56.90
2018-07-17T15:27:49.343Z,57.20
2018-07-17T15:30:17.656Z,57.90
2018-07-17T15:32:45.158Z,57.50
2018-07-17T15:35:12.743Z,58.40
2018-07-17T15:37:40.852Z,59.30
2018-07-17T15:40:09.091Z,58.60
2018-07-17T15:42:37.325Z,58.40
2018-07-17T15:47:33.377Z,58.40
2018-07-17T15:52:30.054Z,59.90
2018-07-17T15:54:57.556Z,57.30
2018-07-17T15:57:25.690Z,57.40
2018-07-17T15:59:53.555Z,59.90
2018-07-17T16:02:21.567Z,61.40
2018-07-17T16:04:49.448Z,62.30
2018-07-17T16:07:16.951Z,60.60
2018-07-17T16:09:44.869Z,59.60
2018-07-17T16:12:13.828Z,59.70
2018-07-17T16:17:09.316Z,60.70
2018-07-17T16:19:37.503Z,60.50
2018-07-17T16:22:05.542Z,59.10
2018-07-17T16:24:33.032Z,56.60
2018-07-17T16:27:00.579Z,55.90
2018-07-17T16:29:28.152Z,55.40
2018-07-17T16:31:56.888Z,53.90
2018-07-17T16:34:24.517Z,53.70
2018-07-17T16:36:53.100Z,50.90
2018-07-17T16:39:20.615Z,51.00
2018-07-17T16:44:16.411Z,50.90
2018-07-17T16:46:43.898Z,51.60
2018-07-17T16:49:12.876Z,53.00
2018-07-17T16:51:40.386Z,54.50
2018-07-17T16:54:07.999Z,55.10
2018-07-17T16:56:36.328Z,56.40
2018-07-17T17:03:59.787Z,54.90
2018-07-17T17:06:29.034Z,55.10
2018-07-17T17:08:57.267Z,54.10
2018-07-17T17:11:24.782Z,56.30
2018-07-17T17:16:21.655Z,56.40
2018-07-17T17:21:17.924Z,57.60
2018-07-17T17:23:45.512Z,58.20
2018-07-17T17:28:40.799Z,55.70
2018-07-17T17:31:09.231Z,53.00
2018-07-17T17:33:37.261Z,51.10
2018-07-17T17:36:04.775Z,51.00
2018-07-17T17:38:33.461Z,50.40
2018-07-17T17:41:01.690Z,50.00
2018-07-17T17:43:29.578Z,51.20
2018-07-17T17:45:57.093Z,52.70
2018-07-17T17:48:24.614Z,51.30
2018-07-17T17:50:52.154Z,53.10
2018-07-17T17:53:20.127Z,54.50
2018-07-17T17:55:47.674Z,56.70
2018-07-17T17:58:15.659Z,53.80
2018-07-17T18:00:43.534Z,50.30
2018-07-17T18:03:11.072Z,50.60
2018-07-17T18:05:38.982Z,50.70
2018-07-17T18:10:34.416Z,50.60
2018-07-17T18:13:03.000Z,48.80
2018-07-17T18:15:31.310Z,49.70
2018-07-17T18:17:58.837Z,50.50
2018-07-17T18:20:27.081Z,49.80
2018-07-17T18:22:54.598Z,48.90
2018-07-17T18:25:22.135Z,48.40
2018-07-17T18:27:50.082Z,47.90
2018-07-17T18:30:18.005Z,48.60
2018-07-17T18:32:45.564Z,49.40
2018-07-17T18:35:13.458Z,49.50
2018-07-17T18:37:41.550Z,49.50
2018-07-17T18:40:09.188Z,49.40
2018-07-17T18:42:37.256Z,50.00
2018-07-17T18:45:05.197Z,50.10
2018-07-17T18:47:33.804Z,51.10
2018-07-17T18:50:12.583Z,51.60
2018-07-17T18:52:29.589Z,54.60
2018-07-17T18:54:57.892Z,55.90
2018-07-17T18:57:25.868Z,58.10
2018-07-17T18:59:53.485Z,57.80
2018-07-17T19:02:22.104Z,60.00
2018-07-17T19:04:50.297Z,60.60
2018-07-17T19:07:18.353Z,61.00
2018-07-17T19:09:47.846Z,60.50
2018-07-17T19:12:16.414Z,61.90
2018-07-17T19:14:44.770Z,61.20
2018-07-17T19:17:12.602Z,61.50
2018-07-17T19:19:41.188Z,64.30
2018-07-17T19:22:09.457Z,63.00
2018-07-17T19:24:37.739Z,64.70
2018-07-17T19:27:05.640Z,64.80
2018-07-17T19:29:34.779Z,65.20
2018-07-17T19:34:31.835Z,64.80
2018-07-17T19:37:00.393Z,65.00
2018-07-17T19:39:28.537Z,64.90
2018-07-17T19:41:57.070Z,66.40
2018-07-17T19:44:25.594Z,65.20
2018-07-17T19:46:53.841Z,66.20
2018-07-17T19:49:21.860Z,67.70
2018-07-17T19:51:50.372Z,66.80
2018-07-17T19:54:18.730Z,67.30
2018-07-17T19:56:46.934Z,68.00
2018-07-17T19:59:15.429Z,67.40
2018-07-17T20:01:43.476Z,67.70
2018-07-17T20:04:11.679Z,69.30
2018-07-17T20:06:40.037Z,69.40
2018-07-17T20:09:09.601Z,69.00
2018-07-17T20:11:37.950Z,69.80
2018-07-17T20:14:06.550Z,70.00
2018-07-17T20:16:34.273Z,71.40
2018-07-17T20:19:02.686Z,71.00
2018-07-17T20:21:30.812Z,71.90
2018-07-17T20:26:27.068Z,73.00
2018-07-17T20:28:55.143Z,72.70
2018-07-17T20:31:23.127Z,72.40
2018-07-17T20:33:50.660Z,74.10
2018-07-17T20:36:18.604Z,72.90
2018-07-17T20:38:46.365Z,75.60
2018-07-17T20:41:14.620Z,73.20
2018-07-17T20:43:43.065Z,73.90
2018-07-17T20:46:11.380Z,74.80
2018-07-17T20:48:39.858Z,73.80
2018-07-17T20:51:08.782Z,72.20
2018-07-17T20:53:36.951Z,73.90
2018-07-17T20:56:04.852Z,73.50
2018-07-17T20:58:33.252Z,73.80
2018-07-17T21:01:01.738Z,73.50
2018-07-17T21:03:29.396Z,73.30
2018-07-17T21:05:57.878Z,73.60
2018-07-17T21:08:25.954Z,73.80
2018-07-17T21:10:54.274Z,73.90
2018-07-17T21:13:22.518Z,73.80
2018-07-17T21:15:50.279Z,74.70
2018-07-17T21:18:18.085Z,74.30
2018-07-17T21:20:46.339Z,74.40
2018-07-17T21:23:14.705Z,74.80
2018-07-17T21:25:42.532Z,75.20
2018-07-17T21:28:11.486Z,75.30
2018-07-17T21:30:39.779Z,75.00
2018-07-17T21:33:07.553Z,75.60
2018-07-17T21:35:35.948Z,76.50
2018-07-17T21:38:05.062Z,75.30
2018-07-17T21:40:33.428Z,75.20
2018-07-17T21:43:01.635Z,75.90
2018-07-17T21:45:30.034Z,77.20
2018-07-17T21:47:59.033Z,76.50
2018-07-17T21:50:26.724Z,76.20
2018-07-17T21:52:55.937Z,76.60
2018-07-17T21:55:24.357Z,76.50
2018-07-17T21:57:52.513Z,75.80
2018-07-17T22:00:20.516Z,76.50
2018-07-17T22:02:48.281Z,76.80
2018-07-17T22:07:45.202Z,75.40
2018-07-17T22:10:13.102Z,75.60
2018-07-17T22:12:41.150Z,77.40
2018-07-17T22:15:09.378Z,76.90
2018-07-17T22:17:38.269Z,78.10
2018-07-17T22:22:34.794Z,76.60
2018-07-17T22:25:03.163Z,76.70
2018-07-17T22:27:31.032Z,76.60
2018-07-17T22:29:59.285Z,77.30
2018-07-17T22:32:27.192Z,77.20
2018-07-17T22:34:54.739Z,77.30
2018-07-17T22:37:22.263Z,78.00
2018-07-17T22:39:50.260Z,77.70
2018-07-17T22:42:17.784Z,78.30
2018-07-17T22:44:46.300Z,77.70
2018-07-17T22:47:13.997Z,79.40
2018-07-17T22:49:41.500Z,79.30
2018-07-17T22:52:09.727Z,79.10
2018-07-17T22:54:37.239Z,78.90
2018-07-17T22:57:05.572Z,81.60
2018-07-17T22:59:33.108Z,79.60
2018-07-17T23:02:01.483Z,80.10
2018-07-17T23:04:28.940Z,80.60
2018-07-17T23:06:56.439Z,80.10
2018-07-17T23:09:25.871Z,80.30
2018-07-17T23:11:53.383Z,81.40
2018-07-17T23:14:21.215Z,80.50
2018-07-17T23:16:48.724Z,80.70
2018-07-17T23:19:16.931Z,80.20
2018-07-17T23:26:40.077Z,81.10
2018-07-17T23:29:08.127Z,80.70
2018-07-17T23:31:36.016Z,81.80
2018-07-17T23:34:04.453Z,82.50
2018-07-17T23:36:32.428Z,81.20
2018-07-17T23:39:00.189Z,81.20
2018-07-17T23:41:27.680Z,82.10
2018-07-17T23:43:55.525Z,81.30
2018-07-17T23:46:23.403Z,81.00
2018-07-17T23:48:50.935Z,83.90
2018-07-17T23:51:18.784Z,81.50
2018-07-17T23:53:46.640Z,81.70
2018-07-17T23:56:14.231Z,81.20
2018-07-17T23:58:42.557Z,81.20
